createdAt,value
2022-10-28T00:01:23.431Z,99.90
2022-10-28T00:03:55.092Z,99.90
2022-10-28T00:06:25.231Z,99.90
2022-10-28T00:08:54.268Z,99.90
2022-10-28T00:11:25.446Z,99.90
2022-10-28T00:13:54.877Z,99.90
2022-10-28T00:16:25.452Z,99.90
2022-10-28T00:18:55.823Z,99.90
2022-10-28T00:21:27.360Z,99.90
2022-10-28T00:23:56.630Z,99.90
2022-10-28T00:26:26.658Z,99.90
2022-10-28T00:28:56.400Z,99.90
2022-10-28T00:31:26.326Z,99.90
2022-10-28T00:33:56.641Z,99.90
2022-10-28T00:36:26.315Z,99.90
2022-10-28T00:38:56.654Z,99.90
2022-10-28T00:41:28.127Z,99.90
2022-10-28T00:43:58.445Z,99.90
2022-10-28T00:46:31.931Z,99.90
2022-10-28T00:49:05.339Z,99.90
2022-10-28T00:51:35.520Z,99.90
2022-10-28T00:54:05.129Z,99.90
2022-10-28T00:56:37.943Z,99.90
2022-10-28T00:59:10.626Z,99.90
2022-10-28T01:01:38.909Z,99.90
2022-10-28T01:04:10.156Z,99.90
2022-10-28T01:06:39.313Z,99.90
2022-10-28T01:09:07.559Z,99.90
2022-10-28T01:11:54.723Z,99.90
2022-10-28T01:14:34.732Z,99.90
2022-10-28T01:17:22.031Z,99.90
2022-10-28T01:20:21.690Z,99.90
2022-10-28T01:22:55.224Z,99.90
2022-10-28T01:25:46.776Z,99.90
2022-10-28T01:28:42.188Z,99.90
2022-10-28T01:31:26.073Z,99.90
2022-10-28T01:33:59.085Z,99.90
2022-10-28T01:36:35.042Z,99.90
2022-10-28T01:39:14.980Z,99.90
2022-10-28T01:41:50.857Z,99.90
2022-10-28T01:44:27.289Z,99.90
2022-10-28T01:47:03.104Z,99.90
2022-10-28T01:49:39.477Z,99.90
2022-10-28T01:52:12.943Z,99.90
2022-10-28T01:54:44.581Z,99.90
2022-10-28T01:57:15.882Z,99.90
2022-10-28T01:59:45.861Z,99.90
2022-10-28T02:02:16.170Z,99.90
2022-10-28T02:04:44.733Z,99.90
2022-10-28T02:07:13.093Z,99.90
2022-10-28T02:09:52.642Z,99.90
2022-10-28T02:12:29.129Z,99.90
2022-10-28T02:15:32.812Z,99.90
2022-10-28T02:18:15.091Z,99.90
2022-10-28T02:20:50.559Z,99.90
2022-10-28T02:23:24.961Z,99.90
2022-10-28T02:25:58.732Z,99.90
2022-10-28T02:28:39.333Z,99.90
2022-10-28T02:31:12.284Z,99.90
2022-10-28T02:33:42.793Z,99.90
2022-10-28T02:36:15.287Z,99.90
2022-10-28T02:38:47.115Z,99.90
2022-10-28T02:41:20.838Z,99.90
2022-10-28T02:43:54.706Z,99.90
2022-10-28T02:46:25.553Z,99.90
2022-10-28T02:48:58.295Z,99.90
2022-10-28T02:51:31.178Z,99.90
2022-10-28T02:54:03.654Z,99.90
2022-10-28T02:56:36.538Z,99.90
2022-10-28T02:59:05.032Z,99.90
2022-10-28T03:01:33.294Z,99.90
2022-10-28T03:04:03.323Z,99.90
2022-10-28T03:06:31.933Z,99.90
2022-10-28T03:09:00.229Z,99.90
2022-10-28T03:11:28.474Z,99.90
2022-10-28T03:13:56.714Z,99.90
2022-10-28T03:16:26.774Z,99.90
2022-10-28T03:18:55.334Z,99.90
2022-10-28T03:21:25.521Z,99.90
2022-10-28T03:23:54.059Z,99.90
2022-10-28T03:26:22.492Z,99.90
2022-10-28T03:28:51.000Z,99.90
2022-10-28T03:31:19.344Z,99.90
2022-10-28T03:33:47.664Z,99.90
2022-10-28T03:36:16.024Z,99.90
2022-10-28T03:38:45.690Z,99.90
2022-10-28T03:41:13.929Z,99.90
2022-10-28T03:43:42.427Z,99.90
2022-10-28T03:46:10.706Z,99.90
2022-10-28T03:48:39.109Z,99.90
2022-10-28T03:51:07.577Z,99.90
2022-10-28T03:53:35.860Z,99.90
2022-10-28T03:56:05.946Z,99.90
2022-10-28T03:58:37.416Z,99.90
2022-10-28T04:01:08.671Z,99.90
2022-10-28T04:03:36.997Z,99.90
2022-10-28T04:06:05.655Z,99.90
2022-10-28T04:08:33.948Z,99.90
2022-10-28T04:11:02.331Z,99.90
2022-10-28T04:13:31.982Z,99.90
2022-10-28T04:16:02.175Z,99.90
2022-10-28T04:18:30.494Z,99.90
2022-10-28T04:20:59.065Z,99.90
2022-10-28T04:23:27.311Z,99.90
2022-10-28T04:25:56.096Z,99.90
2022-10-28T04:28:25.132Z,99.90
2022-10-28T04:30:54.764Z,99.90
2022-10-28T04:33:23.029Z,99.90
2022-10-28T04:35:51.315Z,99.90
2022-10-28T04:38:19.564Z,99.90
2022-10-28T04:40:49.258Z,99.90
2022-10-28T04:43:17.721Z,99.90
2022-10-28T04:45:47.434Z,99.90
2022-10-28T04:48:17.086Z,99.90
2022-10-28T04:50:46.792Z,99.90
2022-10-28T04:53:15.199Z,99.90
2022-10-28T04:55:43.419Z,99.90
2022-10-28T04:58:11.698Z,99.90
2022-10-28T05:00:40.028Z,99.90
2022-10-28T05:03:08.740Z,99.90
2022-10-28T05:05:38.428Z,99.90
2022-10-28T05:08:07.127Z,99.90
2022-10-28T05:10:35.714Z,99.90
2022-10-28T05:13:03.987Z,99.90
2022-10-28T05:15:32.461Z,99.90
2022-10-28T05:18:00.867Z,99.90
2022-10-28T05:20:29.148Z,99.90
2022-10-28T05:22:58.857Z,99.90
2022-10-28T05:25:27.209Z,99.90
2022-10-28T05:27:58.710Z,99.90
2022-10-28T05:30:27.701Z,99.90
2022-10-28T05:33:01.486Z,99.90
2022-10-28T05:35:30.221Z,99.90
2022-10-28T05:38:00.384Z,99.90
2022-10-28T05:40:28.889Z,99.90
2022-10-28T05:42:57.437Z,99.90
2022-10-28T05:45:25.883Z,99.90
2022-10-28T05:47:54.567Z,99.90
2022-10-28T05:50:23.301Z,99.90
2022-10-28T05:52:53.160Z,99.90
2022-10-28T05:55:24.277Z,99.90
2022-10-28T05:57:53.948Z,99.90
2022-10-28T06:00:25.267Z,99.90
2022-10-28T06:02:53.874Z,99.90
2022-10-28T06:05:22.397Z,99.90
2022-10-28T06:07:50.674Z,99.90
2022-10-28T06:10:19.063Z,99.90
2022-10-28T06:12:47.186Z,99.90
2022-10-28T06:15:15.730Z,99.90
2022-10-28T06:17:47.626Z,99.90
2022-10-28T06:20:16.518Z,99.90
2022-10-28T06:22:48.933Z,99.90
2022-10-28T06:25:18.064Z,99.90
2022-10-28T06:27:52.702Z,99.90
2022-10-28T06:30:21.647Z,99.90
2022-10-28T06:32:49.900Z,99.90
2022-10-28T06:35:18.299Z,99.90
2022-10-28T06:37:46.612Z,99.90
2022-10-28T06:40:14.958Z,99.90
2022-10-28T06:42:43.247Z,99.90
2022-10-28T06:45:13.236Z,99.90
2022-10-28T06:47:43.145Z,99.90
2022-10-28T06:50:11.667Z,99.90
2022-10-28T06:52:39.930Z,99.90
2022-10-28T06:55:08.716Z,99.90
2022-10-28T06:57:37.177Z,99.90
2022-10-28T07:00:06.250Z,99.90
2022-10-28T07:02:35.973Z,99.90
2022-10-28T07:05:04.590Z,99.90
2022-10-28T07:07:33.153Z,99.90
2022-10-28T07:10:01.478Z,99.90
2022-10-28T07:12:30.196Z,99.90
2022-10-28T07:14:58.447Z,99.90
2022-10-28T07:17:27.525Z,99.90
2022-10-28T07:19:57.170Z,99.90
2022-10-28T07:22:25.876Z,99.90
2022-10-28T07:24:54.316Z,99.90
2022-10-28T07:27:22.609Z,99.90
2022-10-28T07:29:50.914Z,99.90
2022-10-28T07:32:19.208Z,99.90
2022-10-28T07:34:47.529Z,99.90
2022-10-28T07:37:17.250Z,99.90
2022-10-28T07:39:45.587Z,99.90
2022-10-28T07:42:13.834Z,99.90
2022-10-28T07:44:42.254Z,99.90
2022-10-28T07:47:10.535Z,99.90
2022-10-28T07:49:38.849Z,99.90
2022-10-28T07:52:07.189Z,99.90
2022-10-28T07:54:36.965Z,99.90
2022-10-28T07:57:05.483Z,99.90
2022-10-28T07:59:33.858Z,99.90
2022-10-28T08:02:02.150Z,99.90
2022-10-28T08:04:31.751Z,99.90
2022-10-28T08:07:00.380Z,99.90
2022-10-28T08:09:28.818Z,99.90
2022-10-28T08:11:59.050Z,99.90
2022-10-28T08:14:27.499Z,99.90
2022-10-28T08:16:55.844Z,99.90
2022-10-28T08:19:24.226Z,99.90
2022-10-28T08:21:52.563Z,99.90
2022-10-28T08:24:21.054Z,99.90
2022-10-28T08:26:49.372Z,99.90
2022-10-28T08:29:19.007Z,99.90
2022-10-28T08:31:47.259Z,99.90
2022-10-28T08:34:15.649Z,99.90
2022-10-28T08:36:44.755Z,99.90
2022-10-28T08:39:13.129Z,99.90
2022-10-28T08:41:46.190Z,99.90
2022-10-28T08:44:52.778Z,99.90
2022-10-28T08:47:31.193Z,99.90
2022-10-28T08:50:04.687Z,99.90
2022-10-28T08:52:40.112Z,99.90
2022-10-28T08:55:16.596Z,99.90
2022-10-28T08:57:48.958Z,99.90
2022-10-28T09:00:25.261Z,99.90
2022-10-28T09:03:02.476Z,99.90
2022-10-28T09:05:30.925Z,99.90
2022-10-28T09:08:00.017Z,99.90
2022-10-28T09:10:48.120Z,99.90
2022-10-28T09:13:28.324Z,99.90
2022-10-28T09:16:05.707Z,99.90
2022-10-28T09:18:53.456Z,99.90
2022-10-28T09:21:27.270Z,99.90
2022-10-28T09:23:58.973Z,99.90
2022-10-28T09:26:36.893Z,99.90
2022-10-28T09:29:21.539Z,99.90
2022-10-28T09:31:54.884Z,99.90
2022-10-28T09:34:32.677Z,99.90
2022-10-28T09:37:06.247Z,99.90
2022-10-28T09:39:44.306Z,99.90
2022-10-28T09:42:19.262Z,99.90
2022-10-28T09:44:51.610Z,99.90
2022-10-28T09:47:25.735Z,99.90
2022-10-28T09:50:00.080Z,99.90
2022-10-28T09:52:32.676Z,99.90
2022-10-28T09:55:07.136Z,99.90
2022-10-28T09:57:35.738Z,99.90
2022-10-28T10:00:05.074Z,99.90
2022-10-28T10:02:40.543Z,99.90
2022-10-28T10:05:17.011Z,99.90
2022-10-28T10:07:50.931Z,99.90
2022-10-28T10:10:24.651Z,99.90
2022-10-28T10:12:57.451Z,99.90
2022-10-28T10:15:30.876Z,99.90
2022-10-28T10:18:03.404Z,99.90
2022-10-28T10:20:51.399Z,99.90
2022-10-28T10:23:25.253Z,99.90
2022-10-28T10:25:59.470Z,99.90
2022-10-28T10:28:29.408Z,99.90
2022-10-28T10:31:01.925Z,99.90
2022-10-28T10:33:34.650Z,99.90
2022-10-28T10:36:06.188Z,99.90
2022-10-28T10:38:36.198Z,99.90
2022-10-28T10:41:05.422Z,99.90
2022-10-28T10:43:35.649Z,99.90
2022-10-28T10:46:06.381Z,99.90
2022-10-28T10:48:37.103Z,99.90
2022-10-28T10:51:12.030Z,99.90
2022-10-28T10:53:41.599Z,99.90
2022-10-28T10:56:13.210Z,99.90
2022-10-28T10:58:48.526Z,99.90
2022-10-28T11:01:21.898Z,99.90
2022-10-28T11:03:54.997Z,99.90
2022-10-28T11:06:28.450Z,99.90
2022-10-28T11:08:59.676Z,99.90
2022-10-28T11:11:35.932Z,99.90
2022-10-28T11:14:08.461Z,99.90
2022-10-28T11:16:50.273Z,99.90
2022-10-28T11:19:24.528Z,99.90
2022-10-28T11:22:04.183Z,99.90
2022-10-28T11:25:02.258Z,99.90
2022-10-28T11:27:42.913Z,99.90
2022-10-28T11:30:15.909Z,99.90
2022-10-28T11:33:07.966Z,99.90
2022-10-28T11:36:00.738Z,99.90
2022-10-28T11:38:45.528Z,99.90
2022-10-28T11:41:36.740Z,99.90
2022-10-28T11:44:17.110Z,99.90
2022-10-28T11:47:00.862Z,99.90
2022-10-28T11:49:59.229Z,99.90
2022-10-28T11:52:45.680Z,99.90
2022-10-28T11:55:26.733Z,99.90
2022-10-28T11:58:08.686Z,99.90
2022-10-28T12:00:59.074Z,99.90
2022-10-28T12:03:55.663Z,99.90
2022-10-28T12:06:30.595Z,99.90
2022-10-28T12:09:19.128Z,99.90
2022-10-28T12:12:04.843Z,98.30
2022-10-28T12:14:42.724Z,96.40
2022-10-28T12:17:19.219Z,95.90
2022-10-28T12:19:54.006Z,91.70
2022-10-28T12:22:28.103Z,91.80
2022-10-28T12:25:01.037Z,90.70
2022-10-28T12:27:33.043Z,87.70
2022-10-28T12:30:07.206Z,87.80
2022-10-28T12:32:37.388Z,84.60
2022-10-28T12:35:14.386Z,82.50
2022-10-28T12:37:48.802Z,78.40
2022-10-28T12:40:22.276Z,75.80
2022-10-28T12:42:56.596Z,75.00
2022-10-28T12:45:25.901Z,74.20
2022-10-28T12:48:01.342Z,72.10
2022-10-28T12:50:37.605Z,68.80
2022-10-28T12:53:25.720Z,68.80
2022-10-28T12:55:59.964Z,68.80
2022-10-28T12:58:34.166Z,71.30
2022-10-28T13:01:05.466Z,66.90
2022-10-28T13:03:34.177Z,67.80
2022-10-28T13:06:22.797Z,68.30
2022-10-28T13:09:15.775Z,65.80
2022-10-28T13:12:19.644Z,67.20
2022-10-28T13:15:27.431Z,65.10
2022-10-28T13:18:15.719Z,62.90
2022-10-28T13:20:49.534Z,65.00
2022-10-28T13:23:32.416Z,66.70
2022-10-28T13:26:09.958Z,66.70
2022-10-28T13:28:44.855Z,65.90
2022-10-28T13:31:15.787Z,66.10
2022-10-28T13:33:53.324Z,67.30
2022-10-28T13:36:26.998Z,65.50
2022-10-28T13:38:58.471Z,64.80
2022-10-28T13:41:36.141Z,62.90
2022-10-28T13:44:29.361Z,62.80
2022-10-28T13:50:33.394Z,61.10
2022-10-28T13:53:38.310Z,65.80
2022-10-28T13:56:19.477Z,68.70
2022-10-28T13:58:53.722Z,70.60
2022-10-28T14:04:58.761Z,76.60
2022-10-28T14:07:31.440Z,77.80
2022-10-28T14:10:19.223Z,79.20
2022-10-28T14:12:52.725Z,78.70
2022-10-28T14:15:27.060Z,77.60
2022-10-28T14:18:10.374Z,77.10
2022-10-28T14:20:59.209Z,73.50
2022-10-28T14:24:07.611Z,73.50
2022-10-28T14:27:09.900Z,69.30
2022-10-28T14:29:46.194Z,68.80
2022-10-28T14:32:41.456Z,68.70
2022-10-28T14:35:22.164Z,68.10
2022-10-28T14:38:32.275Z,68.00
2022-10-28T14:41:16.433Z,68.40
2022-10-28T14:44:03.358Z,70.50
2022-10-28T14:46:49.585Z,66.30
2022-10-28T14:49:21.976Z,67.40
2022-10-28T14:51:52.347Z,67.80
2022-10-28T14:54:38.099Z,66.60
2022-10-28T14:57:09.705Z,66.90
2022-10-28T14:59:39.635Z,69.00
2022-10-28T15:02:17.320Z,71.30
2022-10-28T15:04:48.190Z,71.70
2022-10-28T15:07:19.286Z,73.50
2022-10-28T15:09:53.561Z,74.30
2022-10-28T15:12:26.130Z,75.60
2022-10-28T15:14:56.649Z,75.40
2022-10-28T15:17:28.241Z,75.20
2022-10-28T15:19:58.592Z,75.70
2022-10-28T15:22:30.938Z,76.30
2022-10-28T15:25:01.280Z,77.00
2022-10-28T15:27:32.012Z,78.60
2022-10-28T15:30:03.120Z,79.90
2022-10-28T15:32:36.906Z,81.20
2022-10-28T15:35:40.078Z,82.70
2022-10-28T15:38:38.227Z,83.90
2022-10-28T15:41:42.489Z,85.30
2022-10-28T15:44:29.363Z,87.50
2022-10-28T15:46:59.032Z,88.80
2022-10-28T15:49:35.974Z,90.00
2022-10-28T15:52:33.901Z,90.90
2022-10-28T15:55:04.964Z,91.80
2022-10-28T15:57:48.525Z,92.50
2022-10-28T16:00:23.186Z,93.50
2022-10-28T16:02:55.835Z,94.60
2022-10-28T16:05:46.684Z,95.80
2022-10-28T16:08:21.608Z,96.80
2022-10-28T16:10:53.581Z,97.60
2022-10-28T16:13:25.525Z,98.60
2022-10-28T16:15:57.784Z,99.70
2022-10-28T16:18:28.205Z,99.90
2022-10-28T16:20:59.748Z,99.90
2022-10-28T16:23:35.394Z,99.90
2022-10-28T16:26:04.055Z,99.90
2022-10-28T16:28:33.485Z,99.90
2022-10-28T16:31:03.170Z,99.90
2022-10-28T16:33:34.316Z,99.90
2022-10-28T16:36:04.589Z,99.90
2022-10-28T16:38:33.490Z,99.90
2022-10-28T16:41:03.348Z,99.90
2022-10-28T16:43:32.456Z,99.90
2022-10-28T16:46:01.763Z,99.90
2022-10-28T16:48:31.889Z,99.90
2022-10-28T16:51:04.849Z,99.90
2022-10-28T16:53:33.986Z,99.90
2022-10-28T16:56:02.381Z,99.90
2022-10-28T16:58:31.138Z,99.90
2022-10-28T17:01:01.597Z,99.90
2022-10-28T17:03:29.859Z,99.90
2022-10-28T17:05:58.152Z,99.90
2022-10-28T17:08:56.529Z,99.90
2022-10-28T17:11:16.642Z,99.90
2022-10-28T17:13:45.175Z,99.90
2022-10-28T17:16:13.501Z,99.90
2022-10-28T17:18:42.468Z,99.90
2022-10-28T17:21:10.767Z,99.90
2022-10-28T17:23:41.923Z,99.90
2022-10-28T17:26:10.488Z,99.90
2022-10-28T17:28:38.835Z,99.90
2022-10-28T17:31:09.762Z,99.90
2022-10-28T17:33:38.119Z,99.90
2022-10-28T17:36:08.635Z,99.90
2022-10-28T17:38:37.322Z,99.90
2022-10-28T17:41:07.246Z,99.90
2022-10-28T17:43:35.545Z,99.90
2022-10-28T17:46:08.205Z,99.90
2022-10-28T17:48:36.566Z,99.90
2022-10-28T17:51:05.152Z,99.90
2022-10-28T17:53:33.565Z,99.90
2022-10-28T17:56:05.085Z,99.90
2022-10-28T17:58:35.276Z,99.90
2022-10-28T18:01:06.191Z,99.90
2022-10-28T18:03:38.356Z,99.90
2022-10-28T18:06:09.025Z,99.90
2022-10-28T18:08:39.489Z,99.90
2022-10-28T18:11:09.588Z,99.90
2022-10-28T18:13:41.344Z,99.90
2022-10-28T18:16:11.636Z,99.90
2022-10-28T18:18:42.522Z,99.90
2022-10-28T18:21:11.575Z,99.90
2022-10-28T18:23:41.061Z,99.90
2022-10-28T18:26:12.381Z,99.90
2022-10-28T18:28:43.441Z,99.90
2022-10-28T18:31:14.217Z,99.90
2022-10-28T18:33:43.316Z,99.90
2022-10-28T18:36:13.796Z,99.90
2022-10-28T18:38:42.423Z,99.90
2022-10-28T18:41:12.833Z,99.90
2022-10-28T18:43:42.990Z,99.90
2022-10-28T18:46:11.910Z,99.90
2022-10-28T18:48:40.908Z,99.90
2022-10-28T18:51:12.673Z,99.90
2022-10-28T18:53:43.067Z,99.90
2022-10-28T18:56:13.220Z,99.90
2022-10-28T18:58:43.218Z,99.90
2022-10-28T19:01:13.218Z,99.90
2022-10-28T19:03:42.149Z,99.90
2022-10-28T19:06:13.037Z,99.90
2022-10-28T19:08:42.075Z,99.90
2022-10-28T19:11:12.839Z,99.90
2022-10-28T19:13:44.033Z,99.90
2022-10-28T19:18:40.963Z,99.90
2022-10-28T19:21:13.076Z,99.90
2022-10-28T19:23:42.522Z,99.90
2022-10-28T19:26:12.358Z,99.90
2022-10-28T19:28:43.465Z,99.90
2022-10-28T19:31:14.189Z,99.90
2022-10-28T19:33:43.617Z,99.90
2022-10-28T19:36:17.489Z,99.90
2022-10-28T19:38:47.331Z,99.90
2022-10-28T19:41:18.485Z,99.90
2022-10-28T19:43:49.782Z,99.90
2022-10-28T19:46:21.774Z,99.90
2022-10-28T19:48:51.417Z,99.90
2022-10-28T19:51:22.539Z,99.90
2022-10-28T19:53:51.971Z,99.90
2022-10-28T19:56:21.609Z,99.90
2022-10-28T19:58:54.854Z,99.90
2022-10-28T20:01:27.250Z,99.90
2022-10-28T20:03:56.881Z,99.90
2022-10-28T20:06:26.949Z,99.90
2022-10-28T20:08:58.361Z,99.90
2022-10-28T20:11:28.054Z,99.90
2022-10-28T20:14:00.889Z,99.90
2022-10-28T20:16:30.138Z,99.90
2022-10-28T20:18:59.138Z,99.90
2022-10-28T20:21:29.248Z,99.90
2022-10-28T20:23:58.774Z,99.90
2022-10-28T20:26:28.857Z,99.90
2022-10-28T20:28:59.430Z,99.90
2022-10-28T20:31:29.682Z,99.90
2022-10-28T20:34:00.797Z,99.90
2022-10-28T20:36:31.188Z,99.90
2022-10-28T20:39:01.428Z,99.90
2022-10-28T20:41:32.742Z,99.90
2022-10-28T20:44:03.907Z,99.90
2022-10-28T20:46:33.082Z,99.90
2022-10-28T20:49:02.180Z,99.90
2022-10-28T20:51:32.262Z,99.90
2022-10-28T20:54:00.959Z,99.90
2022-10-28T20:56:31.336Z,99.90
2022-10-28T20:59:01.393Z,99.90
2022-10-28T21:01:33.255Z,99.90
2022-10-28T21:04:03.607Z,99.90
2022-10-28T21:06:32.586Z,99.90
2022-10-28T21:09:01.245Z,99.90
2022-10-28T21:11:30.013Z,99.90
2022-10-28T21:14:00.513Z,99.90
2022-10-28T21:16:31.480Z,99.90
2022-10-28T21:19:00.322Z,99.90
2022-10-28T21:21:29.415Z,99.90
2022-10-28T21:23:57.937Z,99.90
2022-10-28T21:26:27.131Z,99.90
2022-10-28T21:28:56.465Z,99.90
2022-10-28T21:31:25.070Z,99.90
2022-10-28T21:33:54.876Z,99.90
2022-10-28T21:36:23.824Z,99.90
2022-10-28T21:38:55.417Z,99.90
2022-10-28T21:41:25.156Z,99.90
2022-10-28T21:43:54.677Z,99.90
2022-10-28T21:46:23.934Z,99.90
2022-10-28T21:48:53.169Z,99.90
2022-10-28T21:51:23.160Z,99.90
2022-10-28T21:53:51.568Z,99.90
2022-10-28T21:56:21.107Z,99.90
2022-10-28T21:58:50.495Z,99.90
2022-10-28T22:01:20.690Z,99.90
2022-10-28T22:03:49.233Z,99.90
2022-10-28T22:06:17.959Z,99.90
2022-10-28T22:08:47.873Z,99.90
2022-10-28T22:11:18.622Z,99.90
2022-10-28T22:13:48.392Z,99.90
2022-10-28T22:16:18.750Z,99.90
2022-10-28T22:18:47.559Z,99.90
2022-10-28T22:21:18.642Z,99.90
2022-10-28T22:23:48.875Z,99.90
2022-10-28T22:26:19.111Z,99.90
2022-10-28T22:28:48.456Z,99.90
2022-10-28T22:31:18.662Z,99.90
2022-10-28T22:36:22.544Z,99.90
2022-10-28T22:38:52.949Z,99.90
2022-10-28T22:41:22.867Z,99.90
2022-10-28T22:43:52.982Z,99.90
2022-10-28T22:46:22.077Z,99.90
2022-10-28T22:48:50.673Z,99.90
2022-10-28T22:51:19.434Z,99.90
2022-10-28T22:53:48.235Z,99.90
2022-10-28T22:56:20.766Z,99.90
2022-10-28T22:58:49.810Z,99.90
2022-10-28T23:01:19.870Z,99.90
2022-10-28T23:03:50.476Z,99.90
2022-10-28T23:06:20.089Z,99.90
2022-10-28T23:08:48.689Z,99.90
2022-10-28T23:11:20.010Z,99.90
2022-10-28T23:13:52.342Z,99.90
2022-10-28T23:16:21.387Z,99.90
2022-10-28T23:18:50.128Z,99.90
2022-10-28T23:21:26.230Z,99.90
2022-10-28T23:23:55.556Z,99.90
2022-10-28T23:26:25.811Z,99.90
2022-10-28T23:28:55.623Z,99.90
2022-10-28T23:31:24.230Z,99.90
2022-10-28T23:33:54.256Z,99.90
2022-10-28T23:36:22.809Z,99.90
2022-10-28T23:38:51.051Z,99.90
2022-10-28T23:41:21.023Z,99.90
2022-10-28T23:43:50.809Z,99.90
2022-10-28T23:46:20.480Z,99.90
2022-10-28T23:48:48.747Z,99.90
2022-10-28T23:51:19.286Z,99.90
2022-10-28T23:53:47.787Z,99.90
2022-10-28T23:56:16.033Z,99.90
2022-10-28T23:58:44.350Z,99.90
